createdAt,value
2017-08-22T00:02:17.219Z,13.70
2017-08-22T00:04:45.220Z,13.70
2017-08-22T00:07:12.756Z,13.70
2017-08-22T00:09:40.271Z,13.70
2017-08-22T00:12:07.798Z,13.70
2017-08-22T00:14:35.305Z,13.70
2017-08-22T00:17:02.850Z,13.60
2017-08-22T00:19:30.357Z,13.60
2017-08-22T00:21:57.889Z,13.60
2017-08-22T00:24:25.407Z,13.60
2017-08-22T00:26:52.931Z,13.50
2017-08-22T00:29:20.469Z,13.50
2017-08-22T00:31:48.010Z,13.50
2017-08-22T00:34:16.504Z,13.50
2017-08-22T00:36:44.027Z,13.40
2017-08-22T00:39:11.568Z,13.40
2017-08-22T00:41:39.077Z,13.30
2017-08-22T00:44:06.608Z,13.30
2017-08-22T00:46:34.135Z,13.30
2017-08-22T00:49:01.650Z,13.30
2017-08-22T00:51:29.192Z,13.30
2017-08-22T00:53:56.700Z,13.30
2017-08-22T00:56:24.236Z,13.20
2017-08-22T00:58:51.767Z,13.10
2017-08-22T01:01:19.300Z,13.10
2017-08-22T01:03:47.806Z,13.10
2017-08-22T01:06:16.311Z,13.10
2017-08-22T01:08:43.821Z,13.10
2017-08-22T01:11:11.316Z,13.10
2017-08-22T01:13:38.849Z,13.10
2017-08-22T01:16:06.350Z,13.10
2017-08-22T01:18:33.905Z,13.10
2017-08-22T01:21:01.409Z,13.10
2017-08-22T01:23:28.932Z,13.10
2017-08-22T01:25:56.436Z,13.10
2017-08-22T01:28:23.977Z,13.10
2017-08-22T01:30:51.477Z,13.10
2017-08-22T01:33:18.979Z,13.00
2017-08-22T01:35:47.916Z,13.00
2017-08-22T01:38:16.033Z,13.00
2017-08-22T01:40:43.564Z,13.00
2017-08-22T01:43:11.077Z,12.90
2017-08-22T01:45:38.616Z,12.90
2017-08-22T01:48:06.135Z,12.90
2017-08-22T01:50:33.694Z,12.80
2017-08-22T01:53:01.207Z,12.80
2017-08-22T01:55:28.715Z,12.80
2017-08-22T01:57:56.240Z,12.80
2017-08-22T02:00:23.742Z,12.80
2017-08-22T02:02:51.291Z,12.80
2017-08-22T02:05:18.815Z,12.80
2017-08-22T02:07:47.114Z,12.80
2017-08-22T02:10:15.425Z,12.80
2017-08-22T02:12:43.066Z,12.80
2017-08-22T02:15:10.583Z,12.80
2017-08-22T02:17:38.116Z,12.80
2017-08-22T02:20:05.664Z,12.80
2017-08-22T02:22:33.183Z,12.80
2017-08-22T02:25:00.713Z,12.90
2017-08-22T02:27:28.218Z,12.90
2017-08-22T02:29:55.756Z,12.90
2017-08-22T02:32:23.275Z,12.90
2017-08-22T02:34:50.826Z,12.90
2017-08-22T02:37:18.329Z,12.80
2017-08-22T02:39:45.833Z,12.80
2017-08-22T02:42:13.368Z,12.80
2017-08-22T02:44:40.887Z,12.80
2017-08-22T02:47:08.409Z,12.80
2017-08-22T02:49:35.916Z,12.80
2017-08-22T02:52:03.472Z,12.80
2017-08-22T02:54:30.996Z,12.80
2017-08-22T02:56:58.565Z,12.70
2017-08-22T02:59:26.083Z,12.80
2017-08-22T03:01:53.594Z,12.80
2017-08-22T03:04:21.129Z,12.80
2017-08-22T03:06:48.667Z,12.80
2017-08-22T03:09:17.590Z,12.80
2017-08-22T03:11:45.838Z,12.80
2017-08-22T03:14:13.382Z,12.80
2017-08-22T03:16:40.891Z,12.80
2017-08-22T03:19:08.438Z,12.80
2017-08-22T03:21:35.962Z,12.70
2017-08-22T03:24:03.495Z,12.70
2017-08-22T03:26:31.021Z,12.70
2017-08-22T03:28:58.525Z,12.70
2017-08-22T03:31:26.054Z,12.70
2017-08-22T03:33:53.567Z,12.70
2017-08-22T03:36:21.087Z,12.70
2017-08-22T03:38:48.638Z,12.70
2017-08-22T03:41:17.427Z,12.80
2017-08-22T03:43:45.335Z,12.80
2017-08-22T03:46:12.853Z,12.80
2017-08-22T03:48:40.401Z,12.80
2017-08-22T03:51:07.892Z,12.80
2017-08-22T03:53:35.408Z,12.80
2017-08-22T03:56:02.912Z,12.80
2017-08-22T03:58:30.464Z,12.80
2017-08-22T04:00:58.065Z,12.80
2017-08-22T04:03:25.603Z,12.80
2017-08-22T04:05:53.119Z,12.80
2017-08-22T04:08:20.635Z,12.80
2017-08-22T04:10:48.149Z,12.80
2017-08-22T04:13:16.509Z,12.90
2017-08-22T04:15:44.038Z,12.80
2017-08-22T04:18:11.542Z,12.80
2017-08-22T04:20:39.095Z,12.90
2017-08-22T04:23:06.593Z,12.90
2017-08-22T04:25:34.094Z,12.90
2017-08-22T04:28:01.629Z,13.00
2017-08-22T04:30:29.129Z,13.00
2017-08-22T04:32:56.650Z,13.10
2017-08-22T04:35:24.163Z,13.10
2017-08-22T04:37:51.686Z,13.10
2017-08-22T04:40:19.204Z,13.10
2017-08-22T04:42:47.645Z,13.10
2017-08-22T04:45:16.132Z,13.20
2017-08-22T04:47:43.639Z,13.20
2017-08-22T04:50:11.160Z,13.20
2017-08-22T04:52:38.681Z,13.30
2017-08-22T04:55:06.196Z,13.30
2017-08-22T04:57:33.704Z,13.30
2017-08-22T05:00:01.233Z,13.30
2017-08-22T05:02:28.742Z,13.30
2017-08-22T05:04:56.274Z,13.40
2017-08-22T05:07:23.861Z,13.40
2017-08-22T05:09:51.400Z,13.40
2017-08-22T05:12:18.926Z,13.40
2017-08-22T05:14:47.087Z,13.50
2017-08-22T05:17:14.605Z,13.50
2017-08-22T05:19:42.115Z,13.50
2017-08-22T05:22:09.642Z,13.60
2017-08-22T05:24:37.148Z,13.60
2017-08-22T05:27:04.686Z,13.60
2017-08-22T05:29:32.185Z,13.60
2017-08-22T05:31:59.675Z,13.70
2017-08-22T05:34:27.220Z,13.70
2017-08-22T05:36:54.731Z,13.70
2017-08-22T05:39:22.255Z,13.70
2017-08-22T05:41:49.760Z,13.80
2017-08-22T05:44:17.299Z,13.80
2017-08-22T05:46:45.656Z,13.80
2017-08-22T05:49:13.196Z,13.90
2017-08-22T05:51:40.699Z,13.90
2017-08-22T05:54:08.209Z,13.90
2017-08-22T05:56:35.731Z,14.00
2017-08-22T05:59:03.696Z,14.00
2017-08-22T06:01:31.208Z,14.00
2017-08-22T06:03:58.715Z,14.10
2017-08-22T06:06:26.233Z,14.10
2017-08-22T06:08:53.834Z,14.10
2017-08-22T06:11:21.329Z,14.20
2017-08-22T06:13:48.851Z,14.20
2017-08-22T06:16:17.589Z,14.30
2017-08-22T06:18:45.444Z,14.30
2017-08-22T06:21:12.960Z,14.30
2017-08-22T06:23:40.473Z,14.40
2017-08-22T06:26:07.966Z,14.40
2017-08-22T06:28:35.518Z,14.40
2017-08-22T06:31:03.014Z,14.50
2017-08-22T06:33:30.551Z,14.60
2017-08-22T06:35:58.138Z,14.60
2017-08-22T06:38:25.655Z,14.70
2017-08-22T06:40:53.347Z,14.70
2017-08-22T06:43:20.854Z,14.80
2017-08-22T06:45:48.374Z,14.80
2017-08-22T06:48:15.894Z,14.90
2017-08-22T06:50:46.519Z,14.90
2017-08-22T06:53:14.038Z,14.90
2017-08-22T06:55:41.561Z,15.00
2017-08-22T06:58:09.098Z,15.10
2017-08-22T07:00:36.615Z,15.10
2017-08-22T07:03:18.179Z,15.20
2017-08-22T07:05:46.662Z,15.30
2017-08-22T07:08:14.204Z,15.40
2017-08-22T07:10:41.726Z,15.50
2017-08-22T07:13:09.302Z,15.60
2017-08-22T07:15:36.806Z,15.70
2017-08-22T07:18:04.326Z,15.70
2017-08-22T07:20:31.870Z,15.80
2017-08-22T07:22:59.391Z,15.90
2017-08-22T07:25:26.932Z,15.90
2017-08-22T07:27:58.636Z,15.90
2017-08-22T07:30:26.187Z,15.90
2017-08-22T07:32:53.706Z,16.00
2017-08-22T07:35:21.244Z,16.10
2017-08-22T07:37:48.758Z,16.20
2017-08-22T07:40:17.339Z,16.30
2017-08-22T07:42:45.575Z,16.40
2017-08-22T07:45:13.112Z,16.60
2017-08-22T07:47:40.638Z,16.70
2017-08-22T07:50:08.148Z,16.80
2017-08-22T07:52:35.680Z,17.00
2017-08-22T07:55:03.189Z,17.00
2017-08-22T07:57:30.708Z,17.10
2017-08-22T07:59:58.243Z,17.30
2017-08-22T08:02:25.768Z,17.40
2017-08-22T08:04:53.302Z,17.60
2017-08-22T08:07:20.836Z,17.70
2017-08-22T08:09:48.562Z,17.80
2017-08-22T08:12:17.244Z,17.90
2017-08-22T08:14:44.753Z,18.00
2017-08-22T08:17:13.122Z,18.10
2017-08-22T08:19:40.634Z,18.20
2017-08-22T08:22:08.161Z,18.30
2017-08-22T08:24:35.718Z,18.40
2017-08-22T08:27:03.280Z,18.50
2017-08-22T08:29:30.806Z,18.60
2017-08-22T08:31:58.314Z,18.70
2017-08-22T08:34:25.844Z,18.90
2017-08-22T08:36:53.345Z,19.20
2017-08-22T08:39:20.873Z,19.30
2017-08-22T08:41:48.400Z,19.40
2017-08-22T08:44:16.996Z,19.50
2017-08-22T08:46:44.510Z,19.50
2017-08-22T08:49:12.040Z,19.60
2017-08-22T08:51:39.570Z,19.70
2017-08-22T08:54:07.082Z,19.70
2017-08-22T08:56:34.609Z,19.80
2017-08-22T08:59:02.106Z,19.70
2017-08-22T09:01:29.634Z,19.80
2017-08-22T09:03:57.140Z,19.70
2017-08-22T09:06:24.651Z,19.80
2017-08-22T09:08:52.803Z,19.80
2017-08-22T09:11:20.366Z,19.90
2017-08-22T09:13:47.899Z,19.80
2017-08-22T09:16:16.581Z,19.80
2017-08-22T09:18:44.117Z,19.80
2017-08-22T09:21:11.628Z,19.80
2017-08-22T09:23:39.142Z,19.90
2017-08-22T09:26:06.683Z,19.90
2017-08-22T09:28:34.192Z,20.00
2017-08-22T09:31:01.713Z,20.10
2017-08-22T09:33:29.204Z,20.20
2017-08-22T09:35:56.736Z,20.30
2017-08-22T09:38:24.254Z,20.50
2017-08-22T09:40:51.758Z,20.80
2017-08-22T09:43:19.311Z,21.00
2017-08-22T09:45:47.654Z,21.10
2017-08-22T09:48:15.801Z,21.30
2017-08-22T09:50:43.331Z,21.50
2017-08-22T09:53:10.839Z,21.70
2017-08-22T09:55:38.367Z,21.80
2017-08-22T09:58:05.876Z,21.80
2017-08-22T10:00:33.418Z,21.90
2017-08-22T10:03:00.922Z,22.00
2017-08-22T10:05:28.417Z,22.10
2017-08-22T10:07:55.939Z,22.20
2017-08-22T10:10:23.447Z,22.30
2017-08-22T10:12:50.978Z,22.40
2017-08-22T10:15:18.512Z,22.50
2017-08-22T10:17:46.012Z,22.50
2017-08-22T10:20:13.539Z,22.70
2017-08-22T10:22:41.038Z,22.60
2017-08-22T10:25:08.566Z,22.70
2017-08-22T10:27:36.069Z,22.70
2017-08-22T10:30:03.641Z,22.90
2017-08-22T10:32:31.166Z,22.90
2017-08-22T10:34:58.679Z,23.00
2017-08-22T10:37:26.211Z,23.00
2017-08-22T10:39:53.720Z,23.00
2017-08-22T10:42:21.231Z,23.00
2017-08-22T10:44:48.759Z,23.10
2017-08-22T10:47:17.624Z,23.20
2017-08-22T10:49:46.359Z,23.30
2017-08-22T10:52:13.891Z,23.50
2017-08-22T10:54:41.440Z,23.40
2017-08-22T10:57:08.955Z,23.30
2017-08-22T10:59:36.449Z,23.20
2017-08-22T11:02:04.104Z,23.20
2017-08-22T11:04:31.668Z,23.40
2017-08-22T11:06:59.193Z,23.40
2017-08-22T11:09:26.697Z,23.30
2017-08-22T11:11:54.264Z,23.40
2017-08-22T11:14:21.769Z,23.40
2017-08-22T11:16:49.266Z,23.40
2017-08-22T11:19:17.627Z,23.50
2017-08-22T11:21:45.594Z,23.50
2017-08-22T11:24:13.139Z,23.60
2017-08-22T11:26:40.682Z,23.60
2017-08-22T11:29:08.206Z,23.60
2017-08-22T11:31:35.720Z,23.50
2017-08-22T11:34:03.243Z,23.30
2017-08-22T11:36:30.769Z,23.30
2017-08-22T11:38:58.271Z,23.30
2017-08-22T11:41:25.793Z,23.30
2017-08-22T11:43:53.345Z,23.30
2017-08-22T11:46:20.888Z,23.40
2017-08-22T11:48:48.437Z,23.30
2017-08-22T11:51:16.849Z,23.30
2017-08-22T11:53:44.387Z,23.10
2017-08-22T11:56:11.892Z,22.90
2017-08-22T11:58:39.417Z,22.80
2017-08-22T12:01:06.936Z,22.60
2017-08-22T12:03:34.454Z,22.40
2017-08-22T12:06:01.960Z,22.30
2017-08-22T12:08:29.543Z,22.30
2017-08-22T12:10:57.076Z,22.20
2017-08-22T12:13:24.591Z,22.20
2017-08-22T12:15:52.093Z,22.20
2017-08-22T12:18:19.611Z,22.30
2017-08-22T12:20:48.193Z,22.40
2017-08-22T12:23:17.028Z,22.60
2017-08-22T12:25:44.537Z,22.70
2017-08-22T12:28:12.053Z,22.80
2017-08-22T12:30:39.571Z,22.80
2017-08-22T12:33:07.087Z,22.80
2017-08-22T12:35:34.647Z,22.80
2017-08-22T12:38:02.153Z,22.90
2017-08-22T12:40:29.665Z,23.00
2017-08-22T12:42:57.160Z,23.20
2017-08-22T12:45:24.725Z,23.20
2017-08-22T12:47:52.252Z,23.30
2017-08-22T12:50:19.759Z,23.20
2017-08-22T12:52:47.282Z,23.10
2017-08-22T12:55:14.810Z,23.00
2017-08-22T12:57:42.331Z,22.90
2017-08-22T13:00:09.826Z,22.90
2017-08-22T13:02:37.344Z,22.90
2017-08-22T13:05:04.862Z,22.80
2017-08-22T13:07:32.397Z,22.70
2017-08-22T13:09:59.936Z,22.70
2017-08-22T13:12:27.475Z,22.70
2017-08-22T13:14:55.078Z,22.80
2017-08-22T13:17:22.666Z,23.00
2017-08-22T13:19:50.921Z,23.20
2017-08-22T13:22:18.471Z,23.20
2017-08-22T13:24:46.854Z,23.30
2017-08-22T13:27:14.407Z,23.30
2017-08-22T13:29:41.919Z,23.40
2017-08-22T13:32:09.453Z,23.70
2017-08-22T13:34:37.254Z,23.80
2017-08-22T13:37:04.786Z,23.80
2017-08-22T13:39:32.319Z,23.90
2017-08-22T13:41:59.856Z,23.90
2017-08-22T13:44:27.393Z,24.00
2017-08-22T13:46:55.006Z,23.90
2017-08-22T13:49:22.542Z,23.80
2017-08-22T13:51:50.048Z,23.70
2017-08-22T13:54:17.573Z,23.60
2017-08-22T13:56:45.663Z,23.40
2017-08-22T13:59:13.199Z,23.30
2017-08-22T14:01:40.722Z,23.30
2017-08-22T14:04:08.335Z,23.10
2017-08-22T14:06:35.855Z,23.00
2017-08-22T14:09:03.388Z,23.00
2017-08-22T14:11:30.908Z,22.90
2017-08-22T14:13:58.415Z,22.80
2017-08-22T14:16:25.939Z,22.80
2017-08-22T14:18:53.442Z,22.80
2017-08-22T14:21:20.975Z,22.70
2017-08-22T14:23:48.494Z,22.80
2017-08-22T14:26:17.079Z,22.80
2017-08-22T14:28:44.605Z,22.90
2017-08-22T14:31:12.098Z,22.90
2017-08-22T14:33:39.627Z,22.90
2017-08-22T14:36:07.129Z,22.90
2017-08-22T14:38:34.638Z,22.80
2017-08-22T14:41:02.151Z,22.80
2017-08-22T14:43:29.683Z,22.90
2017-08-22T14:45:57.182Z,22.90
2017-08-22T14:48:24.712Z,23.00
2017-08-22T14:50:52.226Z,23.10
2017-08-22T14:53:19.737Z,23.10
2017-08-22T14:55:47.757Z,23.00
2017-08-22T14:58:15.755Z,23.00
2017-08-22T15:00:43.351Z,23.00
2017-08-22T15:03:12.892Z,23.00
2017-08-22T15:05:41.067Z,23.00
2017-08-22T15:08:08.583Z,23.00
2017-08-22T15:10:37.577Z,23.10
2017-08-22T15:13:05.139Z,23.10
2017-08-22T15:15:32.728Z,23.10
2017-08-22T15:18:00.337Z,23.20
2017-08-22T15:20:27.860Z,23.20
2017-08-22T15:22:55.380Z,23.20
2017-08-22T15:25:22.970Z,23.30
2017-08-22T15:27:50.536Z,23.30
2017-08-22T15:30:18.039Z,23.20
2017-08-22T15:32:46.319Z,23.20
2017-08-22T15:35:13.842Z,23.10
2017-08-22T15:37:41.376Z,23.00
2017-08-22T15:40:08.925Z,22.90
2017-08-22T15:42:36.433Z,22.80
2017-08-22T15:45:03.950Z,22.80
2017-08-22T15:47:31.475Z,22.70
2017-08-22T15:49:59.086Z,22.70
2017-08-22T15:52:26.599Z,22.70
2017-08-22T15:54:54.143Z,22.60
2017-08-22T15:57:21.660Z,22.50
2017-08-22T15:59:49.186Z,22.40
2017-08-22T16:02:18.025Z,22.40
2017-08-22T16:04:46.624Z,22.20
2017-08-22T16:07:14.162Z,22.20
2017-08-22T16:09:41.676Z,22.00
2017-08-22T16:12:09.208Z,22.00
2017-08-22T16:14:36.714Z,22.00
2017-08-22T16:17:04.323Z,22.00
2017-08-22T16:19:31.826Z,22.00
2017-08-22T16:21:59.343Z,22.00
2017-08-22T16:24:26.868Z,21.90
2017-08-22T16:26:54.379Z,22.00
2017-08-22T16:29:21.905Z,22.00
2017-08-22T16:31:53.210Z,22.00
2017-08-22T16:34:20.742Z,22.00
2017-08-22T16:36:48.275Z,22.10
2017-08-22T16:39:16.567Z,22.10
2017-08-22T16:41:44.082Z,22.10
2017-08-22T16:44:47.616Z,22.10
2017-08-22T16:47:15.830Z,22.20
2017-08-22T16:49:43.377Z,22.20
2017-08-22T16:52:10.913Z,22.30
2017-08-22T16:54:38.409Z,22.30
2017-08-22T16:57:05.917Z,22.30
2017-08-22T16:59:33.443Z,22.40
2017-08-22T17:02:00.992Z,22.30
2017-08-22T17:04:28.525Z,22.30
2017-08-22T17:06:56.050Z,22.30
2017-08-22T17:09:23.661Z,22.30
2017-08-22T17:11:51.190Z,22.30
2017-08-22T17:14:18.732Z,22.30
2017-08-22T17:16:46.712Z,22.20
2017-08-22T17:19:14.288Z,22.20
2017-08-22T17:21:41.859Z,22.10
2017-08-22T17:24:09.374Z,22.00
2017-08-22T17:26:38.537Z,21.90
2017-08-22T17:29:06.048Z,21.80
2017-08-22T17:31:33.583Z,21.70
2017-08-22T17:34:01.129Z,21.60
2017-08-22T17:36:28.664Z,21.50
2017-08-22T17:38:56.257Z,21.40
2017-08-22T17:41:23.832Z,21.30
2017-08-22T17:43:51.504Z,21.30
2017-08-22T17:46:19.008Z,21.20
2017-08-22T17:48:47.522Z,21.10
2017-08-22T17:51:15.035Z,21.00
2017-08-22T17:53:42.572Z,20.90
2017-08-22T17:56:10.074Z,20.80
2017-08-22T17:58:37.591Z,20.80
2017-08-22T18:01:05.129Z,20.70
2017-08-22T18:03:32.849Z,20.70
2017-08-22T18:06:00.427Z,20.60
2017-08-22T18:08:30.328Z,20.60
2017-08-22T18:10:57.902Z,20.50
2017-08-22T18:13:25.521Z,20.50
2017-08-22T18:15:53.134Z,20.50
2017-08-22T18:18:20.676Z,20.40
2017-08-22T18:20:48.196Z,20.40
2017-08-22T18:23:16.339Z,20.40
2017-08-22T18:25:43.834Z,20.30
2017-08-22T18:28:11.432Z,20.30
2017-08-22T18:30:40.210Z,20.20
2017-08-22T18:33:07.764Z,20.20
2017-08-22T18:35:35.281Z,20.20
2017-08-22T18:38:02.799Z,20.10
2017-08-22T18:40:30.317Z,20.20
2017-08-22T18:42:57.859Z,20.10
2017-08-22T18:45:25.396Z,20.00
2017-08-22T18:47:52.920Z,20.00
2017-08-22T18:50:20.470Z,20.00
2017-08-22T18:52:47.975Z,19.90
2017-08-22T18:55:15.844Z,19.80
2017-08-22T18:57:43.397Z,19.80
2017-08-22T19:00:11.071Z,19.70
2017-08-22T19:02:38.604Z,19.70
2017-08-22T19:05:06.114Z,19.70
2017-08-22T19:07:33.643Z,19.60
2017-08-22T19:10:01.164Z,19.60
2017-08-22T19:12:29.080Z,19.50
2017-08-22T19:14:56.601Z,19.50
2017-08-22T19:17:24.116Z,19.40
2017-08-22T19:19:51.710Z,19.30
2017-08-22T19:22:19.267Z,19.20
2017-08-22T19:24:48.014Z,19.20
2017-08-22T19:27:15.919Z,19.10
2017-08-22T19:29:43.444Z,19.10
2017-08-22T19:32:10.962Z,19.00
2017-08-22T19:34:38.636Z,18.90
2017-08-22T19:37:06.194Z,18.90
2017-08-22T19:39:33.835Z,18.80
2017-08-22T19:42:01.389Z,18.80
2017-08-22T19:44:29.235Z,18.70
2017-08-22T19:47:00.473Z,18.70
2017-08-22T19:49:28.015Z,18.60
2017-08-22T19:51:55.558Z,18.60
2017-08-22T19:54:23.077Z,18.50
2017-08-22T19:56:50.609Z,18.50
2017-08-22T19:59:18.125Z,18.50
2017-08-22T20:01:47.716Z,18.40
2017-08-22T20:04:15.965Z,18.40
2017-08-22T20:06:43.574Z,18.40
2017-08-22T20:09:11.106Z,18.30
2017-08-22T20:11:38.704Z,18.30
2017-08-22T20:14:06.379Z,18.20
2017-08-22T20:16:33.995Z,18.20
2017-08-22T20:19:01.636Z,18.20
2017-08-22T20:21:29.226Z,18.10
2017-08-22T20:23:57.047Z,18.00
2017-08-22T20:26:24.668Z,18.00
2017-08-22T20:28:52.207Z,18.00
2017-08-22T20:31:19.992Z,17.90
2017-08-22T20:33:47.959Z,17.90
2017-08-22T20:36:21.264Z,17.80
2017-08-22T20:38:49.212Z,17.80
2017-08-22T20:41:18.043Z,17.80
2017-08-22T20:43:46.069Z,17.70
2017-08-22T20:46:13.617Z,17.70
2017-08-22T20:48:41.160Z,17.60
2017-08-22T20:51:08.687Z,17.60
2017-08-22T20:53:36.219Z,17.60
2017-08-22T20:56:03.726Z,17.50
2017-08-22T20:58:31.267Z,17.50
2017-08-22T21:00:58.776Z,17.50
2017-08-22T21:03:26.312Z,17.40
2017-08-22T21:05:53.835Z,17.40
2017-08-22T21:08:21.373Z,17.40
2017-08-22T21:10:48.914Z,17.40
2017-08-22T21:13:16.436Z,17.40
2017-08-22T21:15:43.970Z,17.30
2017-08-22T21:18:11.491Z,17.30
2017-08-22T21:20:39.017Z,17.30
2017-08-22T21:23:06.547Z,17.30
2017-08-22T21:25:34.090Z,17.20
2017-08-22T21:28:01.620Z,17.20
2017-08-22T21:30:29.181Z,17.20
2017-08-22T21:32:56.712Z,17.10
2017-08-22T21:35:24.261Z,17.10
2017-08-22T21:37:51.852Z,17.10
2017-08-22T21:40:19.372Z,17.10
2017-08-22T21:42:47.516Z,17.10
2017-08-22T21:45:15.029Z,17.00
2017-08-22T21:47:42.561Z,17.00
2017-08-22T21:50:10.087Z,17.00
2017-08-22T21:52:37.625Z,17.00
2017-08-22T21:55:05.146Z,17.00
2017-08-22T21:57:32.671Z,16.90
2017-08-22T22:00:00.199Z,16.90
2017-08-22T22:02:27.713Z,16.90
2017-08-22T22:04:55.247Z,16.90
2017-08-22T22:07:22.781Z,16.90
2017-08-22T22:09:50.320Z,16.90
2017-08-22T22:12:17.826Z,16.90
2017-08-22T22:14:46.135Z,16.80
2017-08-22T22:17:13.686Z,16.80
2017-08-22T22:19:41.195Z,16.80
2017-08-22T22:22:08.739Z,16.80
2017-08-22T22:24:36.241Z,16.80
2017-08-22T22:27:03.871Z,16.80
2017-08-22T22:29:31.490Z,16.80
2017-08-22T22:31:59.391Z,16.80
2017-08-22T22:34:27.315Z,16.80
2017-08-22T22:36:54.831Z,16.70
2017-08-22T22:39:22.384Z,16.70
2017-08-22T22:41:49.954Z,16.70
2017-08-22T22:44:18.067Z,16.70
2017-08-22T22:46:46.054Z,16.60
2017-08-22T22:49:13.591Z,16.50
2017-08-22T22:51:41.115Z,16.50
2017-08-22T22:54:08.637Z,16.50
2017-08-22T22:56:36.183Z,16.40
2017-08-22T22:59:04.289Z,16.40
2017-08-22T23:01:31.835Z,16.40
2017-08-22T23:03:59.359Z,16.40
2017-08-22T23:06:26.919Z,16.40
2017-08-22T23:08:54.451Z,16.40
2017-08-22T23:11:21.953Z,16.40
2017-08-22T23:13:49.481Z,16.40
2017-08-22T23:16:18.339Z,16.40
2017-08-22T23:18:46.950Z,16.40
2017-08-22T23:21:14.467Z,16.40
2017-08-22T23:23:42.034Z,16.30
2017-08-22T23:26:09.576Z,16.30
2017-08-22T23:28:37.098Z,16.30
2017-08-22T23:31:04.639Z,16.30
2017-08-22T23:33:32.168Z,16.30
2017-08-22T23:35:59.710Z,16.20
2017-08-22T23:38:27.226Z,16.30
2017-08-22T23:40:54.765Z,16.20
2017-08-22T23:43:22.280Z,16.20
2017-08-22T23:45:49.799Z,16.20
2017-08-22T23:48:18.620Z,16.10
2017-08-22T23:50:46.781Z,16.10
2017-08-22T23:53:14.305Z,16.10
2017-08-22T23:55:41.820Z,16.10
2017-08-22T23:58:09.382Z,16.10
